Terminal Aerodrome Forecast
Issued by NWS

Home | Current Version | Previous Version | Text Only | Print | Product List | Glossary Off
Versions: 1 2 3 4 5 6 7 8 9 10 11 12 13 14 15 16 17

000
FTUS43 KBIS 290500
TAFDIK
TAF
KDIK 290522Z 2906/3006 17006KT P6SM FEW140
     FM291700 02009KT P6SM FEW060
     FM300100 05006KT P6SM SKC=

USA.gov is the U.S. government's official web portal to all federal, state and local government web resources and services.